Impacts TAF Board
For situational awareness. Not to be used for flight planning purposes.
IDs:

KDEN - Denver Intl, CO, US

Issued at 0303 UTC 23 Oct 2018
Updated at 0312 UTC 23 Oct 2018
Potential Impact None Slight Moderate High
Time0253Z 23/04Z 23/05Z 23/06Z 23/07Z 23/08Z 23/09Z 23/10Z 23/11Z 23/12Z 23/13Z 23/14Z 23/15Z 23/16Z>>
Type OBS PRVL PRVL PRVL PRVL PRVL PRVL PRVL PRVL PRVL PRVL PRVL PRVL PRVL
VIS 10 >6 >6 >6 >6 >6 >6 >6 >6 >6 >6 >6 >6 >6
CIG 150 140 140 140 120 120 120 120 120 110 110 110 110 110
Cover BKN BKN BKN BKN BKN BKN BKN BKN BKN BKN BKN BKN BKN BKN
FltCat VFR VFR VFR VFR VFR VFR VFR VFR VFR VFR VFR VFR VFR VFR
WX -- -- -- -- -- -- -- -- -- -- -- -- -- --
WDir 170 150 150 150 180 180 180 180 180 180 180 180 180 180
WSpd 10 10 10 10 8 8 8 8 8 7 7 7 7 7
WGst -- -- -- -- -- -- -- -- -- -- -- -- -- --
Raw TAF
KDEN 230303Z 2303/2406 15010KT P6SM FEW090 BKN140
  FM230700 18008KT P6SM SCT090 BKN120
  FM231200 18007KT P6SM SCT070 BKN110
  FM231800 16014G21KT P6SM SCT080 BKN250
  FM240200 16012KT P6SM SCT060 BKN120


Raw METAR
KDEN 230253Z 17010KT 10SM BKN150 BKN180 11/01 A3020 RMK AO2 SLP188 T01110006 51016
KDEN 230153Z 11013KT 10SM FEW110 BKN150 BKN180 13/01 A3019 RMK AO2 SLP188 T01330011
KDEN 230053Z 10011KT 10SM BKN110 BKN180 15/00 A3017 RMK AO2 SLP180 T01500000

METAR Board
Radar Display
Forecast Discussion
For situational awareness. Not to be used for flight planning purposes.